Kaisei Maru — JD3114 — position and weather

sailwx.info

Track history (hours):
 
Tides and Currents Weather Stations Pressure Air Temp Water Temp Dewpoint Dewpoint Depression Visibility Wind Speed Wind Dir Waves Ship Positions

Kaisei Maru

Last reported at 2017-Apr-26 08:28 UTC. Time now 2017-Apr-30 08:51 UTC.
Position N 34°36' E 134°56'.

Length 52 m; draft 3.8 m.

Type: Tanker. MMSI: 431001837.

Date/timePositionNaut miles runAvg speedWind from/ knotsBaromVisibWave heightAir tempDewpointWater temp
2017-Apr-26 08:28N 34°36' E 134°56'510.2
2017-Apr-26 08:00N 34°37' E 135°01'5 9.4
2017-Apr-26 07:30N 34°37' E 135°07'3 6.5
2017-Apr-26 07:00N 34°39' E 135°10'0 0.0
2017-Apr-26 06:30N 34°39' E 135°10'0 0.0
2017-Apr-26 06:00N 34°39' E 135°10'0 0.0
2017-Apr-26 05:30N 34°39' E 135°10'0 0.0
2017-Apr-26 05:00N 34°39' E 135°10'0 0.0
2017-Apr-26 04:30N 34°39' E 135°10'0 0.0
2017-Apr-26 04:00N 34°39' E 135°10'0 0.0
2017-Apr-26 03:30N 34°39' E 135°10'0 0.0
2017-Apr-26 03:00N 34°39' E 135°10'0 0.0
2017-Apr-26 02:30N 34°39' E 135°10'0 0.0
2017-Apr-26 02:00N 34°39' E 135°10'0 0.0
2017-Apr-26 01:30N 34°39' E 135°10'0 0.0
2017-Apr-26 01:00N 34°39' E 135°10'0 0.0
2017-Apr-26 00:30N 34°39' E 135°10'0 0.0
2017-Apr-26 00:00N 34°39' E 135°10'0 0.0
2017-Apr-25 23:30N 34°39' E 135°10'2 3.5
2017-Apr-25 23:00N 34°40' E 135°12'1 2.9
2017-Apr-25 22:30N 34°41' E 135°12'0 0.0
2017-Apr-25 22:00N 34°41' E 135°12'0 0.0
2017-Apr-25 21:30N 34°41' E 135°12'0 0.0
2017-Apr-25 21:00N 34°41' E 135°12'0 0.0
2017-Apr-25 20:30N 34°41' E 135°12'0 0.0
2017-Apr-25 19:59N 34°41' E 135°12'0 0.0
2017-Apr-25 19:30N 34°41' E 135°12'0 0.0
2017-Apr-25 19:00N 34°41' E 135°12'0 0.0
2017-Apr-25 18:30N 34°41' E 135°12'0 0.0
2017-Apr-25 18:00N 34°41' E 135°12'0 0.0
2017-Apr-25 17:30N 34°41' E 135°12'0 0.0
2017-Apr-25 17:00N 34°41' E 135°12'0 0.0
2017-Apr-25 16:30N 34°41' E 135°12'0 0.0
2017-Apr-25 16:00N 34°41' E 135°12'0 0.0
2017-Apr-25 15:30N 34°41' E 135°12'0 0.0
2017-Apr-25 15:00N 34°41' E 135°12'0 0.0
2017-Apr-25 14:00N 34°41' E 135°12'0 0.0
2017-Apr-25 13:30N 34°41' E 135°12'0 0.0
2017-Apr-25 13:00N 34°41' E 135°12'0 0.0
2017-Apr-25 12:30N 34°41' E 135°12'0 0.0
2017-Apr-25 12:00N 34°41' E 135°12'0 0.0
2017-Apr-25 11:30N 34°41' E 135°12'0 0.0
2017-Apr-25 11:00N 34°41' E 135°12'0 0.0
2017-Apr-25 10:30N 34°41' E 135°12'0 0.0
2017-Apr-25 10:00N 34°41' E 135°12'0 0.0
2017-Apr-25 09:30N 34°41' E 135°12'0 0.0
2017-Apr-25 09:00N 34°41' E 135°12'0 0.0
2017-Apr-25 08:30N 34°41' E 135°12'0 0.0
2017-Apr-25 08:00N 34°41' E 135°12'0 0.1
2017-Apr-25 07:30N 34°41' E 135°12'4 7.3
2017-Apr-25 06:59N 34°42' E 135°17'0 0.0
2017-Apr-25 06:30N 34°42' E 135°17'0 0.0
2017-Apr-25 06:00N 34°42' E 135°17'0 0.0
2017-Apr-25 05:30N 34°42' E 135°17'0 0.0
2017-Apr-25 05:00N 34°42' E 135°17'1 1.5
2017-Apr-25 04:30N 34°42' E 135°16'510.2
2017-Apr-25 04:00N 34°39' E 135°11'1 2.2
2017-Apr-25 03:30N 34°39' E 135°10'0 0.0
2017-Apr-25 02:59N 34°39' E 135°10'0 0.0
2017-Apr-25 02:30N 34°39' E 135°10'0 0.0
2017-Apr-25 02:00N 34°39' E 135°10'0 0.0
2017-Apr-25 01:30N 34°39' E 135°10'0 0.0
2017-Apr-25 01:00N 34°39' E 135°10'0 0.0
2017-Apr-25 00:30N 34°39' E 135°10'0 0.0
2017-Apr-25 00:00N 34°39' E 135°10'0 0.0
2017-Apr-24 23:30N 34°39' E 135°10'0 0.7
2017-Apr-24 23:00N 34°39' E 135°10'2 3.0
2017-Apr-24 22:30N 34°38' E 135°09'3 7.0
2017-Apr-24 22:00N 34°36' E 135°06'4 6.9
2017-Apr-24 21:30N 34°37' E 135°02'4 6.2
2017-Apr-24 20:52N 34°36' E 134°57'  
2017-Apr-20 04:58N 34°37' E 135°01'510.3
2017-Apr-20 04:30N 34°35' E 135°06'510.0
2017-Apr-20 04:00N 34°31' E 135°11'510.5
2017-Apr-20 03:31N 34°29' E 135°16'4 7.5
2017-Apr-20 03:00N 34°26' E 135°19'0 0.0
2017-Apr-20 02:30N 34°26' E 135°19'0 0.0
2017-Apr-20 02:00N 34°26' E 135°19'0 0.0
2017-Apr-20 01:31N 34°26' E 135°19'0 0.0
2017-Apr-20 01:01N 34°26' E 135°19'0 0.0
2017-Apr-20 00:31N 34°26' E 135°19'0 0.0
2017-Apr-20 00:01N 34°26' E 135°19'0 0.0
2017-Apr-19 23:30N 34°26' E 135°19'0 0.3
2017-Apr-19 23:00N 34°26' E 135°19'4 8.3
2017-Apr-19 22:30N 34°30' E 135°17'511.0
2017-Apr-19 22:01N 34°35' E 135°16'510.9
2017-Apr-19 21:30N 34°40' E 135°15'2 4.5
2017-Apr-19 21:01N 34°41' E 135°12'0 0.0
2017-Apr-19 20:31N 34°41' E 135°12'0 0.0
2017-Apr-19 20:01N 34°41' E 135°12'0 0.0
2017-Apr-19 19:31N 34°41' E 135°12'0 0.0
2017-Apr-19 19:00N 34°41' E 135°12'0 0.0
2017-Apr-19 18:31N 34°41' E 135°12'0 0.0
2017-Apr-19 18:00N 34°41' E 135°12'0 0.0
2017-Apr-19 17:31N 34°41' E 135°12'0 0.0
2017-Apr-19 17:00N 34°41' E 135°12'0 0.0
2017-Apr-19 16:30N 34°41' E 135°12'0 0.0
2017-Apr-19 16:00N 34°41' E 135°12'0 0.0
2017-Apr-19 15:30N 34°41' E 135°12'0 0.0
2017-Apr-19 15:01N 34°41' E 135°12'0 0.0
2017-Apr-19 14:31N 34°41' E 135°12'0 0.0
2017-Apr-19 13:30N 34°41' E 135°12'0 0.0
2017-Apr-19 13:01N 34°41' E 135°12'0 0.0
2017-Apr-19 12:30N 34°41' E 135°12'0 0.0
2017-Apr-19 12:01N 34°41' E 135°12'0 0.0
2017-Apr-19 11:30N 34°41' E 135°12'0 0.0
2017-Apr-19 11:01N 34°41' E 135°12'0 0.0
2017-Apr-19 10:30N 34°41' E 135°12'0 0.0
2017-Apr-19 10:01N 34°41' E 135°12'0 0.0
2017-Apr-19 09:30N 34°41' E 135°12'0 0.0
2017-Apr-19 09:01N 34°41' E 135°12'0 0.0
2017-Apr-19 08:31N 34°41' E 135°12'0 0.0
2017-Apr-19 08:00N 34°41' E 135°12'0 0.0
2017-Apr-19 07:30N 34°41' E 135°12'0 0.0
2017-Apr-19 07:00N 34°41' E 135°12'0 0.0
2017-Apr-19 06:30N 34°41' E 135°12'0 0.0
2017-Apr-19 06:01N 34°41' E 135°12'0 0.0
2017-Apr-19 05:31N 34°41' E 135°12'0 0.0
2017-Apr-19 05:00N 34°41' E 135°12'1 1.3
2017-Apr-19 04:30N 34°41' E 135°13'510.1
2017-Apr-19 04:01N 34°41' E 135°19'4 7.7
2017-Apr-19 03:29N 34°42' E 135°24'0 0.1
2017-Apr-18 23:57N 34°42' E 135°23'0 0.0
2017-Apr-18 22:57N 34°42' E 135°23'0 0.9
2017-Apr-18 22:30N 34°42' E 135°24'3 6.3
2017-Apr-18 22:01N 34°41' E 135°20'510.6
2017-Apr-18 21:31N 34°41' E 135°14'2 3.1
2017-Apr-18 21:01N 34°41' E 135°12'0 0.0
2017-Apr-18 20:30N 34°41' E 135°12'0 0.0
2017-Apr-18 20:01N 34°41' E 135°12'0 0.0
2017-Apr-18 19:31N 34°41' E 135°12'0 0.0
2017-Apr-18 19:00N 34°41' E 135°12'0 0.0
2017-Apr-18 18:30N 34°41' E 135°12'0 0.0
2017-Apr-18 18:01N 34°41' E 135°12'0 0.0
2017-Apr-18 17:30N 34°41' E 135°12'0 0.0
2017-Apr-18 17:01N 34°41' E 135°12'0 0.0
2017-Apr-18 16:30N 34°41' E 135°12'0 0.0
2017-Apr-18 16:01N 34°41' E 135°12'0 0.0
2017-Apr-18 15:30N 34°41' E 135°12'0 0.0
2017-Apr-18 15:01N 34°41' E 135°12'0 0.0
2017-Apr-18 14:00N 34°41' E 135°12'0 0.0
2017-Apr-18 13:31N 34°41' E 135°12'0 0.0
2017-Apr-18 13:00N 34°41' E 135°12'0 0.0
2017-Apr-18 12:31N 34°41' E 135°12'0 0.0
2017-Apr-18 12:00N 34°41' E 135°12'0 0.0
2017-Apr-18 11:31N 34°41' E 135°12'0 0.0
2017-Apr-18 11:01N 34°41' E 135°12'0 0.0
2017-Apr-18 10:30N 34°41' E 135°12'0 0.0
2017-Apr-18 10:01N 34°41' E 135°12'0 0.0
2017-Apr-18 09:30N 34°41' E 135°12'0 0.0
2017-Apr-18 09:01N 34°41' E 135°12'0 0.0
2017-Apr-18 08:31N 34°41' E 135°12'0 0.0
2017-Apr-18 08:01N 34°41' E 135°12'0 0.0
2017-Apr-18 07:30N 34°41' E 135°12'0 0.0
2017-Apr-18 07:01N 34°41' E 135°12'0 0.0
2017-Apr-18 06:31N 34°41' E 135°12'0 0.3
2017-Apr-18 06:00N 34°41' E 135°12'4 8.5
2017-Apr-18 05:31N 34°38' E 135°16'5 9.4
2017-Apr-18 05:00N 34°34' E 135°17'510.1
2017-Apr-18 04:30N 34°29' E 135°18'3 6.2
2017-Apr-18 04:00N 34°26' E 135°19'0 0.0
2017-Apr-18 03:29N 34°26' E 135°19'0 0.0
2017-Apr-18 03:00N 34°26' E 135°19'0 0.0
2017-Apr-18 02:30N 34°26' E 135°19'0 0.0
2017-Apr-18 02:01N 34°26' E 135°19'0 0.0
2017-Apr-18 01:30N 34°26' E 135°19'0 0.0
2017-Apr-18 01:00N 34°26' E 135°19'0 0.0
2017-Apr-18 00:30N 34°26' E 135°19'0 0.0
2017-Apr-18 00:01N 34°26' E 135°19'0 0.0
2017-Apr-17 23:30N 34°26' E 135°19'0 0.3
2017-Apr-17 23:00N 34°26' E 135°19'1 1.1
2017-Apr-17 22:27N 34°26' E 135°19'0 0.0
2017-Apr-17 21:58N 34°26' E 135°19'0 0.3
2017-Apr-17 21:30N 34°26' E 135°19'510.8
2017-Apr-17 21:00N 34°29' E 135°13'611.5
2017-Apr-17 20:29N 34°33' E 135°07'613.1
2017-Apr-17 20:00N 34°37' E 135°01'  
Track history (hours):
 
Tides and Currents Weather Stations Pressure Air Temp Water Temp Dewpoint Dewpoint Depression Visibility Wind Speed Wind Dir Waves Ship Positions

Kaisei Maru

Last reported at 2017-Apr-26 08:28 UTC. Time now 2017-Apr-30 08:51 UTC.
Position N 34°36' E 134°56'.

Length 52 m; draft 3.8 m.

Type: Tanker. MMSI: 431001837.

Date/timePositionNaut miles runAvg speedWind from/ knotsBaromVisibWave heightAir tempDewpointWater temp
2017-Apr-26 08:28N 34°36' E 134°56'510.2
2017-Apr-26 08:00N 34°37' E 135°01'5 9.4
2017-Apr-26 07:30N 34°37' E 135°07'3 6.5
2017-Apr-26 07:00N 34°39' E 135°10'0 0.0
2017-Apr-26 06:30N 34°39' E 135°10'0 0.0
2017-Apr-26 06:00N 34°39' E 135°10'0 0.0
2017-Apr-26 05:30N 34°39' E 135°10'0 0.0
2017-Apr-26 05:00N 34°39' E 135°10'0 0.0
2017-Apr-26 04:30N 34°39' E 135°10'0 0.0
2017-Apr-26 04:00N 34°39' E 135°10'0 0.0
2017-Apr-26 03:30N 34°39' E 135°10'0 0.0
2017-Apr-26 03:00N 34°39' E 135°10'0 0.0
2017-Apr-26 02:30N 34°39' E 135°10'0 0.0
2017-Apr-26 02:00N 34°39' E 135°10'0 0.0
2017-Apr-26 01:30N 34°39' E 135°10'0 0.0
2017-Apr-26 01:00N 34°39' E 135°10'0 0.0
2017-Apr-26 00:30N 34°39' E 135°10'0 0.0
2017-Apr-26 00:00N 34°39' E 135°10'0 0.0
2017-Apr-25 23:30N 34°39' E 135°10'2 3.5
2017-Apr-25 23:00N 34°40' E 135°12'1 2.9
2017-Apr-25 22:30N 34°41' E 135°12'0 0.0
2017-Apr-25 22:00N 34°41' E 135°12'0 0.0
2017-Apr-25 21:30N 34°41' E 135°12'0 0.0
2017-Apr-25 21:00N 34°41' E 135°12'0 0.0
2017-Apr-25 20:30N 34°41' E 135°12'0 0.0
2017-Apr-25 19:59N 34°41' E 135°12'0 0.0
2017-Apr-25 19:30N 34°41' E 135°12'0 0.0
2017-Apr-25 19:00N 34°41' E 135°12'0 0.0
2017-Apr-25 18:30N 34°41' E 135°12'0 0.0
2017-Apr-25 18:00N 34°41' E 135°12'0 0.0
2017-Apr-25 17:30N 34°41' E 135°12'0 0.0
2017-Apr-25 17:00N 34°41' E 135°12'0 0.0
2017-Apr-25 16:30N 34°41' E 135°12'0 0.0
2017-Apr-25 16:00N 34°41' E 135°12'0 0.0
2017-Apr-25 15:30N 34°41' E 135°12'0 0.0
2017-Apr-25 15:00N 34°41' E 135°12'0 0.0
2017-Apr-25 14:00N 34°41' E 135°12'0 0.0
2017-Apr-25 13:30N 34°41' E 135°12'0 0.0
2017-Apr-25 13:00N 34°41' E 135°12'0 0.0
2017-Apr-25 12:30N 34°41' E 135°12'0 0.0
2017-Apr-25 12:00N 34°41' E 135°12'0 0.0
2017-Apr-25 11:30N 34°41' E 135°12'0 0.0
2017-Apr-25 11:00N 34°41' E 135°12'0 0.0
2017-Apr-25 10:30N 34°41' E 135°12'0 0.0
2017-Apr-25 10:00N 34°41' E 135°12'0 0.0
2017-Apr-25 09:30N 34°41' E 135°12'0 0.0
2017-Apr-25 09:00N 34°41' E 135°12'0 0.0
2017-Apr-25 08:30N 34°41' E 135°12'0 0.0
2017-Apr-25 08:00N 34°41' E 135°12'0 0.1
2017-Apr-25 07:30N 34°41' E 135°12'4 7.3
2017-Apr-25 06:59N 34°42' E 135°17'0 0.0
2017-Apr-25 06:30N 34°42' E 135°17'0 0.0
2017-Apr-25 06:00N 34°42' E 135°17'0 0.0
2017-Apr-25 05:30N 34°42' E 135°17'0 0.0
2017-Apr-25 05:00N 34°42' E 135°17'1 1.5
2017-Apr-25 04:30N 34°42' E 135°16'510.2
2017-Apr-25 04:00N 34°39' E 135°11'1 2.2
2017-Apr-25 03:30N 34°39' E 135°10'0 0.0
2017-Apr-25 02:59N 34°39' E 135°10'0 0.0
2017-Apr-25 02:30N 34°39' E 135°10'0 0.0
2017-Apr-25 02:00N 34°39' E 135°10'0 0.0
2017-Apr-25 01:30N 34°39' E 135°10'0 0.0
2017-Apr-25 01:00N 34°39' E 135°10'0 0.0
2017-Apr-25 00:30N 34°39' E 135°10'0 0.0
2017-Apr-25 00:00N 34°39' E 135°10'0 0.0
2017-Apr-24 23:30N 34°39' E 135°10'0 0.7
2017-Apr-24 23:00N 34°39' E 135°10'2 3.0
2017-Apr-24 22:30N 34°38' E 135°09'3 7.0
2017-Apr-24 22:00N 34°36' E 135°06'4 6.9
2017-Apr-24 21:30N 34°37' E 135°02'4 6.2
2017-Apr-24 20:52N 34°36' E 134°57'  
2017-Apr-20 04:58N 34°37' E 135°01'510.3
2017-Apr-20 04:30N 34°35' E 135°06'510.0
2017-Apr-20 04:00N 34°31' E 135°11'510.5
2017-Apr-20 03:31N 34°29' E 135°16'4 7.5
2017-Apr-20 03:00N 34°26' E 135°19'0 0.0
2017-Apr-20 02:30N 34°26' E 135°19'0 0.0
2017-Apr-20 02:00N 34°26' E 135°19'0 0.0
2017-Apr-20 01:31N 34°26' E 135°19'0 0.0
2017-Apr-20 01:01N 34°26' E 135°19'0 0.0
2017-Apr-20 00:31N 34°26' E 135°19'0 0.0
2017-Apr-20 00:01N 34°26' E 135°19'0 0.0
2017-Apr-19 23:30N 34°26' E 135°19'0 0.3
2017-Apr-19 23:00N 34°26' E 135°19'4 8.3
2017-Apr-19 22:30N 34°30' E 135°17'511.0
2017-Apr-19 22:01N 34°35' E 135°16'510.9
2017-Apr-19 21:30N 34°40' E 135°15'2 4.5
2017-Apr-19 21:01N 34°41' E 135°12'0 0.0
2017-Apr-19 20:31N 34°41' E 135°12'0 0.0
2017-Apr-19 20:01N 34°41' E 135°12'0 0.0
2017-Apr-19 19:31N 34°41' E 135°12'0 0.0
2017-Apr-19 19:00N 34°41' E 135°12'0 0.0
2017-Apr-19 18:31N 34°41' E 135°12'0 0.0
2017-Apr-19 18:00N 34°41' E 135°12'0 0.0
2017-Apr-19 17:31N 34°41' E 135°12'0 0.0
2017-Apr-19 17:00N 34°41' E 135°12'0 0.0
2017-Apr-19 16:30N 34°41' E 135°12'0 0.0
2017-Apr-19 16:00N 34°41' E 135°12'0 0.0
2017-Apr-19 15:30N 34°41' E 135°12'0 0.0
2017-Apr-19 15:01N 34°41' E 135°12'0 0.0
2017-Apr-19 14:31N 34°41' E 135°12'0 0.0
2017-Apr-19 13:30N 34°41' E 135°12'0 0.0
2017-Apr-19 13:01N 34°41' E 135°12'0 0.0
2017-Apr-19 12:30N 34°41' E 135°12'0 0.0
2017-Apr-19 12:01N 34°41' E 135°12'0 0.0
2017-Apr-19 11:30N 34°41' E 135°12'0 0.0
2017-Apr-19 11:01N 34°41' E 135°12'0 0.0
2017-Apr-19 10:30N 34°41' E 135°12'0 0.0
2017-Apr-19 10:01N 34°41' E 135°12'0 0.0
2017-Apr-19 09:30N 34°41' E 135°12'0 0.0
2017-Apr-19 09:01N 34°41' E 135°12'0 0.0
2017-Apr-19 08:31N 34°41' E 135°12'0 0.0
2017-Apr-19 08:00N 34°41' E 135°12'0 0.0
2017-Apr-19 07:30N 34°41' E 135°12'0 0.0
2017-Apr-19 07:00N 34°41' E 135°12'0 0.0
2017-Apr-19 06:30N 34°41' E 135°12'0 0.0
2017-Apr-19 06:01N 34°41' E 135°12'0 0.0
2017-Apr-19 05:31N 34°41' E 135°12'0 0.0
2017-Apr-19 05:00N 34°41' E 135°12'1 1.3
2017-Apr-19 04:30N 34°41' E 135°13'510.1
2017-Apr-19 04:01N 34°41' E 135°19'4 7.7
2017-Apr-19 03:29N 34°42' E 135°24'0 0.1
2017-Apr-18 23:57N 34°42' E 135°23'0 0.0
2017-Apr-18 22:57N 34°42' E 135°23'0 0.9
2017-Apr-18 22:30N 34°42' E 135°24'3 6.3
2017-Apr-18 22:01N 34°41' E 135°20'510.6
2017-Apr-18 21:31N 34°41' E 135°14'2 3.1
2017-Apr-18 21:01N 34°41' E 135°12'0 0.0
2017-Apr-18 20:30N 34°41' E 135°12'0 0.0
2017-Apr-18 20:01N 34°41' E 135°12'0 0.0
2017-Apr-18 19:31N 34°41' E 135°12'0 0.0
2017-Apr-18 19:00N 34°41' E 135°12'0 0.0
2017-Apr-18 18:30N 34°41' E 135°12'0 0.0
2017-Apr-18 18:01N 34°41' E 135°12'0 0.0
2017-Apr-18 17:30N 34°41' E 135°12'0 0.0
2017-Apr-18 17:01N 34°41' E 135°12'0 0.0
2017-Apr-18 16:30N 34°41' E 135°12'0 0.0
2017-Apr-18 16:01N 34°41' E 135°12'0 0.0
2017-Apr-18 15:30N 34°41' E 135°12'0 0.0
2017-Apr-18 15:01N 34°41' E 135°12'0 0.0
2017-Apr-18 14:00N 34°41' E 135°12'0 0.0
2017-Apr-18 13:31N 34°41' E 135°12'0 0.0
2017-Apr-18 13:00N 34°41' E 135°12'0 0.0
2017-Apr-18 12:31N 34°41' E 135°12'0 0.0
2017-Apr-18 12:00N 34°41' E 135°12'0 0.0
2017-Apr-18 11:31N 34°41' E 135°12'0 0.0
2017-Apr-18 11:01N 34°41' E 135°12'0 0.0
2017-Apr-18 10:30N 34°41' E 135°12'0 0.0
2017-Apr-18 10:01N 34°41' E 135°12'0 0.0
2017-Apr-18 09:30N 34°41' E 135°12'0 0.0
2017-Apr-18 09:01N 34°41' E 135°12'0 0.0
2017-Apr-18 08:31N 34°41' E 135°12'0 0.0
2017-Apr-18 08:01N 34°41' E 135°12'0 0.0
2017-Apr-18 07:30N 34°41' E 135°12'0 0.0
2017-Apr-18 07:01N 34°41' E 135°12'0 0.0
2017-Apr-18 06:31N 34°41' E 135°12'0 0.3
2017-Apr-18 06:00N 34°41' E 135°12'4 8.5
2017-Apr-18 05:31N 34°38' E 135°16'5 9.4
2017-Apr-18 05:00N 34°34' E 135°17'510.1
2017-Apr-18 04:30N 34°29' E 135°18'3 6.2
2017-Apr-18 04:00N 34°26' E 135°19'0 0.0
2017-Apr-18 03:29N 34°26' E 135°19'0 0.0
2017-Apr-18 03:00N 34°26' E 135°19'0 0.0
2017-Apr-18 02:30N 34°26' E 135°19'0 0.0
2017-Apr-18 02:01N 34°26' E 135°19'0 0.0
2017-Apr-18 01:30N 34°26' E 135°19'0 0.0
2017-Apr-18 01:00N 34°26' E 135°19'0 0.0
2017-Apr-18 00:30N 34°26' E 135°19'0 0.0
2017-Apr-18 00:01N 34°26' E 135°19'0 0.0
2017-Apr-17 23:30N 34°26' E 135°19'0 0.3
2017-Apr-17 23:00N 34°26' E 135°19'1 1.1
2017-Apr-17 22:27N 34°26' E 135°19'0 0.0
2017-Apr-17 21:58N 34°26' E 135°19'0 0.3
2017-Apr-17 21:30N 34°26' E 135°19'510.8
2017-Apr-17 21:00N 34°29' E 135°13'611.5
2017-Apr-17 20:29N 34°33' E 135°07'613.1
2017-Apr-17 20:00N 34°37' E 135°01'  

Dump ship's entire track history